Impacts TAF Board
For situational awareness. Not to be used for flight planning purposes.
IDs:

KEET - Alabaster/Shelby Cnt, AL, US

Issued at 1148 UTC 21 Feb 2019
Updated at 1352 UTC 21 Feb 2019
Potential Impact None Slight Moderate High
Time<<22/02Z 22/03Z 22/04Z 22/05Z 22/06Z 22/07Z 22/08Z 22/09Z 22/10Z 22/11Z 22/12Z 22/13Z 22/14Z>>
Type PRVL PRVL PRVL PRVL PRVL PRVL PRVL PRVL PRVL PRVL
VIS 5 5 5 5 5 5 5 5 5 5
CIG 4 4 4 4 4 4 4 4 4 4
Cover OVC OVC OVC OVC OVC OVC OVC OVC OVC OVC
FltCat LIFR LIFR LIFR LIFR LIFR LIFR LIFR LIFR LIFR LIFR
WX -DZ BR -DZ BR -DZ BR -DZ BR -DZ BR -DZ BR -DZ BR -DZ BR -DZ BR -DZ BR
WDir 40 40 40 40 40 40 40 40 40 40
WSpd 3 3 3 3 3 3 3 3 3 3
WGst -- -- -- -- -- -- -- -- -- --
Raw TAF
KEET 211148Z 2112/2212 29005KT 5SM SHRA BR BKN005 OVC017
  TEMPO 2112/2114 2SM TSRA BKN015 OVC030CB
  FM211400 33003KT 5SM -SHRA BR SCT002 OVC006
  FM211600 VRB04KT P6SM SCT005 OVC015
  FM220100 04003KT 5SM -DZ BR OVC004


METAR Board
Radar Display
Forecast Discussion
For situational awareness. Not to be used for flight planning purposes.